Time;durP1;ratioP1;P1;durP2;ratioP2;P2;SDS_P1;SDS_P2;PMS_P1;PMS_P2;Temp;Humidity;BMP_temperature;BMP_pressure;BME280_temperature;BME280_humidity;BME280_pressure;Samples;Min_cycle;Max_cycle;Signal;HPM_P1;HPM_P2
2024/03/26 00:00:50;;;;;;;2.83;1.13;;;;;;;32.35;25.30;97602.41;7397640;19;20018;-59
2024/03/26 00:03:16;;;;;;;4.80;1.70;;;;;;;32.38;25.22;97603.19;7394624;19;20006;-59
2024/03/26 00:05:42;;;;;;;0.90;0.43;;;;;;;32.32;25.39;97598.00;7398044;19;21152;-60
2024/03/26 00:08:08;;;;;;;0.85;0.82;;;;;;;32.43;25.46;97587.44;7397678;19;20085;-59
2024/03/26 00:10:34;;;;;;;2.53;0.75;;;;;;;32.04;25.39;97582.88;7397987;19;20037;-59
2024/03/26 00:13:00;;;;;;;2.47;1.05;;;;;;;32.03;25.43;97587.19;7397982;19;20462;-59
2024/03/26 00:15:27;;;;;;;1.50;0.90;;;;;;;31.99;25.33;97587.03;7397451;19;20017;-59
2024/03/26 00:17:53;;;;;;;2.75;0.98;;;;;;;31.90;25.05;97579.59;7399315;19;20010;-60
2024/03/26 00:20:19;;;;;;;2.92;1.42;;;;;;;32.10;25.14;97585.91;7397381;19;20018;-59
2024/03/26 00:22:46;;;;;;;1.40;0.82;;;;;;;32.39;24.93;97582.31;7396667;19;20018;-59
2024/03/26 00:25:12;;;;;;;26.25;0.98;;;;;;;32.27;24.98;97576.25;7396801;19;20496;-59
2024/03/26 00:27:38;;;;;;;2.65;1.27;;;;;;;32.21;24.99;97573.22;7395752;19;20023;-59
2024/03/26 00:30:05;;;;;;;1.48;1.38;;;;;;;31.80;25.01;97570.69;7396515;19;20049;-59
2024/03/26 00:32:31;;;;;;;1.08;0.30;;;;;;;31.45;25.34;97571.16;7397397;19;20093;-59
2024/03/26 00:34:57;;;;;;;1.15;0.95;;;;;;;31.58;25.18;97570.81;7397077;19;20019;-60
2024/03/26 00:37:23;;;;;;;0.95;0.50;;;;;;;31.59;25.22;97571.53;7396085;19;20011;-60
2024/03/26 00:39:49;;;;;;;2.55;1.05;;;;;;;31.53;24.94;97568.50;7395240;19;20014;-59
2024/03/26 00:42:16;;;;;;;13.15;3.05;;;;;;;31.51;25.62;97571.31;7393267;19;20006;-60
2024/03/26 00:44:42;;;;;;;1.67;1.33;;;;;;;31.54;25.19;97556.31;7398804;19;20030;-60
2024/03/26 00:47:08;;;;;;;2.60;0.52;;;;;;;31.52;25.24;97555.50;7395178;19;20119;-60
2024/03/26 00:49:34;;;;;;;6.38;2.10;;;;;;;31.62;25.32;97550.75;7397755;19;20010;-59
2024/03/26 00:52:01;;;;;;;0.85;0.70;;;;;;;32.23;24.76;97541.56;7395843;19;20036;-59
2024/03/26 00:54:27;;;;;;;0.47;0.47;;;;;;;32.18;24.96;97546.50;7396355;19;20033;-60
2024/03/26 00:56:53;;;;;;;6.97;1.23;;;;;;;32.18;24.86;97531.38;7394212;19;20007;-60
2024/03/26 00:59:19;;;;;;;2.20;1.35;;;;;;;32.17;24.28;97529.91;7399632;19;20026;-60
2024/03/26 01:01:45;;;;;;;1.48;0.98;;;;;;;32.03;24.94;97529.56;7395923;19;20015;-60
2024/03/26 01:04:11;;;;;;;7.68;1.80;;;;;;;31.92;24.82;97519.19;7396455;19;20084;-59
2024/03/26 01:06:38;;;;;;;0.75;0.65;;;;;;;31.83;24.95;97517.50;7395279;19;20014;-59
2024/03/26 01:09:04;;;;;;;1.17;1.08;;;;;;;31.42;24.97;97518.56;7397918;19;20014;-60
2024/03/26 01:11:30;;;;;;;4.07;1.02;;;;;;;31.06;25.64;97520.38;7395701;19;20062;-60
2024/03/26 01:13:57;;;;;;;0.88;0.88;;;;;;;31.02;25.27;97511.63;7395669;19;20042;-59
2024/03/26 01:16:23;;;;;;;2.13;1.30;;;;;;;31.10;25.31;97520.53;7396072;19;20033;-59
2024/03/26 01:18:50;;;;;;;3.63;1.70;;;;;;;30.91;25.51;97515.63;7399219;19;20404;-59
2024/03/26 01:21:16;;;;;;;2.75;1.05;;;;;;;31.11;25.23;97514.09;7398938;19;20333;-59
2024/03/26 01:23:42;;;;;;;2.17;1.92;;;;;;;31.16;25.29;97512.78;7393763;19;20015;-59
2024/03/26 01:26:08;;;;;;;2.08;1.17;;;;;;;31.11;25.29;97505.47;7394302;19;20021;-59
2024/03/26 01:28:34;;;;;;;0.70;0.70;;;;;;;31.15;25.67;97505.56;7395112;19;20391;-59
2024/03/26 01:31:00;;;;;;;2.92;1.30;;;;;;;30.99;25.76;97504.38;7395443;19;20121;-59
2024/03/26 01:33:26;;;;;;;5.22;1.17;;;;;;;30.92;25.11;97500.59;7399942;19;20006;-59
2024/03/26 01:35:53;;;;;;;8.23;1.52;;;;;;;30.87;25.54;97504.75;7395593;19;20450;-59
2024/03/26 01:38:20;;;;;;;0.57;0.57;;;;;;;30.99;25.33;97502.22;7394569;19;20090;-59
2024/03/26 01:40:46;;;;;;;1.77;1.67;;;;;;;31.02;25.54;97503.75;7394945;19;20025;-59
2024/03/26 01:43:12;;;;;;;1.13;1.02;;;;;;;31.04;25.15;97498.06;7392842;19;20014;-59
2024/03/26 01:45:39;;;;;;;1.15;1.05;;;;;;;30.89;25.38;97496.19;7398152;19;20013;-59
2024/03/26 01:48:06;;;;;;;7.97;2.05;;;;;;;30.79;25.44;97487.25;7396259;19;20021;-59
2024/03/26 01:50:32;;;;;;;2.40;1.40;;;;;;;30.67;25.84;97492.59;7393918;19;20018;-59
2024/03/26 01:52:59;;;;;;;2.42;1.60;;;;;;;30.62;25.89;97486.00;7394350;19;20537;-59
2024/03/26 01:55:26;;;;;;;2.38;1.20;;;;;;;30.84;25.72;97491.69;7394084;19;20013;-59
2024/03/26 01:57:52;;;;;;;5.55;1.73;;;;;;;30.79;25.75;97484.38;7396737;19;20007;-59
2024/03/26 02:00:20;;;;;;;6.72;2.03;;;;;;;30.84;25.76;97479.47;7394405;19;20018;-59
2024/03/26 02:02:50;;;;;;;2.38;1.27;;;;;;;30.81;25.83;97483.69;7391237;19;20015;-59
2024/03/26 02:05:16;;;;;;;1.45;1.10;;;;;;;30.82;25.49;97483.00;7394144;19;20014;-60
2024/03/26 02:07:42;;;;;;;5.53;2.67;;;;;;;31.00;25.73;97471.31;7397619;19;20015;-59
2024/03/26 02:10:08;;;;;;;1.17;1.17;;;;;;;31.08;25.50;97469.41;7393699;19;20021;-59
2024/03/26 02:12:34;;;;;;;6.68;1.73;;;;;;;31.25;25.67;97471.31;7394121;19;20347;-59
2024/03/26 02:15:00;;;;;;;12.70;1.50;;;;;;;31.13;25.76;97458.75;7393637;19;20011;-59
2024/03/26 02:17:27;;;;;;;4.32;2.28;;;;;;;31.17;25.43;97462.47;7394400;19;20566;-59
2024/03/26 02:19:53;;;;;;;2.35;1.65;;;;;;;31.14;25.72;97463.09;7397498;19;20015;-59
2024/03/26 02:22:20;;;;;;;13.10;1.52;;;;;;;30.98;25.40;97451.88;7392559;19;20058;-59
2024/03/26 02:24:47;;;;;;;2.35;1.55;;;;;;;31.05;25.29;97456.41;7393811;19;20025;-59
2024/03/26 02:27:13;;;;;;;4.88;1.50;;;;;;;30.52;25.86;97459.13;7393922;19;20055;-59
2024/03/26 02:29:39;;;;;;;2.70;1.83;;;;;;;30.36;25.63;97456.50;7397417;19;20007;-59
2024/03/26 02:32:05;;;;;;;7.30;1.50;;;;;;;30.21;25.90;97448.81;7391746;19;20010;-59
2024/03/26 02:34:32;;;;;;;7.28;1.95;;;;;;;30.33;25.83;97454.22;7393321;19;20014;-59
2024/03/26 02:36:58;;;;;;;1.77;1.40;;;;;;;30.28;25.73;97449.72;7391666;19;20014;-59
2024/03/26 02:39:24;;;;;;;8.40;1.15;;;;;;;30.23;25.81;97448.16;7390633;19;20018;-60
2024/03/26 02:41:51;;;;;;;3.67;1.88;;;;;;;30.02;25.71;97448.91;7395668;19;20028;-60
2024/03/26 02:44:17;;;;;;;2.35;1.52;;;;;;;29.97;26.14;97443.03;7392505;19;20014;-59
2024/03/26 02:46:43;;;;;;;5.80;2.05;;;;;;;30.04;25.81;97437.50;7392817;19;20007;-59
2024/03/26 02:49:09;;;;;;;1.83;1.63;;;;;;;30.06;25.62;97431.81;7397912;19;20010;-59
2024/03/26 02:51:35;;;;;;;18.50;1.73;;;;;;;30.30;25.90;97433.28;7391096;19;20478;-59
2024/03/26 02:54:01;;;;;;;6.38;1.08;;;;;;;30.35;25.63;97434.19;7395638;19;20462;-59
2024/03/26 02:56:28;;;;;;;5.07;1.52;;;;;;;31.09;25.31;97439.25;7392150;19;20355;-59
2024/03/26 02:58:54;;;;;;;4.22;1.65;;;;;;;31.50;25.13;97423.09;7392230;19;20010;-60
2024/03/26 03:01:23;;;;;;;4.22;2.05;;;;;;;31.67;24.72;97424.97;7394229;19;20017;-60
2024/03/26 03:03:49;;;;;;;1.63;1.50;;;;;;;31.70;24.58;97424.34;7396780;19;20078;-59
2024/03/26 03:06:15;;;;;;;2.83;1.30;;;;;;;31.72;24.78;97418.63;7403099;19;20019;-60
2024/03/26 03:08:41;;;;;;;0.93;0.93;;;;;;;31.58;24.64;97417.56;7400085;19;20014;-59
2024/03/26 03:11:07;;;;;;;2.22;2.00;;;;;;;30.91;25.37;97418.63;7399101;19;20365;-59
2024/03/26 03:13:33;;;;;;;2.53;1.50;;;;;;;30.64;25.76;97413.50;7398964;19;20343;-60
2024/03/26 03:15:59;;;;;;;1.80;0.98;;;;;;;30.41;25.59;97405.63;7400394;19;20525;-60
2024/03/26 03:18:29;;;;;;;0.68;0.50;;;;;;;30.40;25.68;97407.78;7402796;19;20014;-59
2024/03/26 03:20:55;;;;;;;1.55;1.35;;;;;;;31.47;24.69;97401.44;7398922;19;20458;-60
2024/03/26 03:23:21;;;;;;;3.13;1.90;;;;;;;32.11;24.38;97403.03;7395309;19;20351;-59
2024/03/26 03:25:54;;;;;;;2.45;1.38;;;;;;;31.99;24.24;97403.47;7399030;19;20033;-59
2024/03/26 03:28:20;;;;;;;3.67;1.25;;;;;;;31.86;24.58;97395.22;7399761;19;20014;-59
2024/03/26 03:30:46;;;;;;;3.28;1.85;;;;;;;32.05;24.63;97394.97;7398743;19;20007;-59
2024/03/26 03:33:13;;;;;;;5.40;1.80;;;;;;;32.18;24.31;97390.94;7399780;19;20003;-59
2024/03/26 03:35:40;;;;;;;2.78;2.53;;;;;;;32.28;24.39;97387.56;7398788;19;20034;-59
2024/03/26 03:38:06;;;;;;;12.82;2.42;;;;;;;32.73;23.90;97390.00;7403162;19;20018;-59
2024/03/26 03:40:35;;;;;;;9.23;1.80;;;;;;;32.92;23.90;97391.81;7398652;19;20021;-59
2024/03/26 03:43:02;;;;;;;1.55;1.40;;;;;;;33.36;23.53;97382.56;7397666;19;20078;-59
2024/03/26 03:45:28;;;;;;;12.10;3.00;;;;;;;33.75;23.43;97387.59;7403195;19;20029;-59
2024/03/26 03:47:55;;;;;;;6.65;1.10;;;;;;;33.81;23.50;97379.00;7399987;19;20463;-59
2024/03/26 03:50:21;;;;;;;3.15;2.00;;;;;;;33.45;23.33;97384.16;7398361;19;20006;-59
2024/03/26 03:52:48;;;;;;;2.95;2.00;;;;;;;33.46;23.45;97374.81;7398718;19;20018;-59
2024/03/26 03:55:14;;;;;;;3.15;1.52;;;;;;;33.17;23.71;97380.78;7396748;19;20388;-59
2024/03/26 03:57:40;;;;;;;2.15;1.95;;;;;;;33.19;23.69;97380.81;7397993;19;20027;-59
2024/03/26 04:00:07;;;;;;;2.00;1.42;;;;;;;33.30;23.39;97371.66;7397582;19;20014;-60
2024/03/26 04:02:37;;;;;;;;;;;;;;;33.35;23.35;97369.56;7397131;19;20034;-59
2024/03/26 04:05:04;;;;;;;1.02;0.68;;;;;;;33.25;23.53;97364.34;7394914;19;19994;-59
2024/03/26 04:07:30;;;;;;;4.88;2.15;;;;;;;33.24;23.38;97354.25;7395176;19;20320;-60
2024/03/26 04:09:56;;;;;;;7.18;1.95;;;;;;;33.22;23.47;97356.34;7394990;19;20021;-60
2024/03/26 04:12:22;;;;;;;2.00;1.38;;;;;;;33.24;23.15;97347.72;7393183;19;20006;-59
2024/03/26 04:14:48;;;;;;;1.65;1.55;;;;;;;33.26;23.45;97342.00;7392935;19;20037;-59
2024/03/26 04:17:14;;;;;;;5.75;2.60;;;;;;;33.15;23.48;97340.34;7396441;19;20006;-59
2024/03/26 04:19:42;;;;;;;2.15;1.08;;;;;;;33.33;23.23;97341.38;7395280;19;20014;-59
2024/03/26 04:22:08;;;;;;;14.73;2.83;;;;;;;33.48;23.25;97340.19;7394538;19;20007;-59
2024/03/26 04:24:34;;;;;;;11.57;2.80;;;;;;;33.58;23.18;97336.78;7396652;19;20010;-59
2024/03/26 04:27:01;;;;;;;10.02;3.22;;;;;;;33.61;23.46;97335.41;7395364;19;20545;-59
2024/03/26 04:29:28;;;;;;;5.10;1.60;;;;;;;33.66;23.16;97328.25;7396313;19;20024;-59
2024/03/26 04:31:54;;;;;;;4.03;2.28;;;;;;;33.60;23.10;97331.78;7397124;19;20019;-60
2024/03/26 04:34:20;;;;;;;1.90;1.38;;;;;;;33.51;23.34;97330.19;7397127;19;20015;-59
2024/03/26 04:36:48;;;;;;;7.30;2.22;;;;;;;33.27;23.34;97329.00;7397981;19;20013;-59
2024/03/26 04:39:14;;;;;;;3.47;1.98;;;;;;;33.09;23.39;97325.81;7396823;19;20331;-59
2024/03/26 04:41:40;;;;;;;1.30;1.20;;;;;;;32.93;23.42;97314.69;7396904;19;20006;-60
2024/03/26 04:44:06;;;;;;;1.50;1.40;;;;;;;33.28;23.06;97324.72;7395444;19;20373;-60
2024/03/26 04:46:32;;;;;;;4.63;3.33;;;;;;;33.56;22.84;97336.75;7395380;19;20045;-59
2024/03/26 04:48:59;;;;;;;9.10;3.35;;;;;;;33.68;23.11;97336.94;7399447;19;20023;-59
2024/03/26 04:51:25;;;;;;;3.97;2.05;;;;;;;33.63;22.86;97336.13;7395613;19;20371;-59
2024/03/26 04:53:51;;;;;;;7.35;2.00;;;;;;;33.65;22.97;97337.59;7396084;19;20018;-59
2024/03/26 04:56:17;;;;;;;4.35;1.70;;;;;;;33.53;22.71;97338.13;7395849;19;20506;-59
2024/03/26 04:58:44;;;;;;;2.28;1.50;;;;;;;33.57;22.80;97338.19;7395929;19;20053;-59
2024/03/26 05:01:10;;;;;;;3.72;2.30;;;;;;;33.52;22.60;97330.91;7396058;19;20377;-59
2024/03/26 05:03:36;;;;;;;8.00;3.25;;;;;;;33.59;22.85;97346.91;7394078;19;20011;-59
2024/03/26 05:06:03;;;;;;;2.63;1.75;;;;;;;33.69;22.71;97338.41;7396025;19;20025;-59
2024/03/26 05:08:29;;;;;;;14.27;2.45;;;;;;;33.72;22.59;97337.03;7396601;19;20038;-60
2024/03/26 05:10:55;;;;;;;7.35;2.42;;;;;;;33.66;22.43;97342.69;7394172;19;20467;-60
2024/03/26 05:13:21;;;;;;;2.88;1.15;;;;;;;33.46;22.67;97339.47;7395286;19;20021;-60
2024/03/26 05:15:47;;;;;;;4.22;2.17;;;;;;;33.55;22.74;97338.91;7395542;19;20015;-59
2024/03/26 05:18:13;;;;;;;10.63;2.08;;;;;;;33.42;22.71;97327.81;7398879;19;20034;-59
2024/03/26 05:20:39;;;;;;;3.50;2.15;;;;;;;33.38;22.93;97328.50;7393871;19;20014;-59
2024/03/26 05:23:05;;;;;;;5.68;1.90;;;;;;;33.46;23.15;97336.56;7393150;19;20011;-60
2024/03/26 05:25:31;;;;;;;3.97;1.15;;;;;;;33.52;22.71;97336.69;7393972;19;20027;-60
2024/03/26 05:27:57;;;;;;;5.50;2.90;;;;;;;33.63;23.10;97332.53;7393933;19;20026;-59
2024/03/26 05:30:24;;;;;;;16.95;2.58;;;;;;;33.78;22.75;97328.44;7395638;19;20056;-59
2024/03/26 05:32:50;;;;;;;15.63;2.45;;;;;;;33.83;22.64;97327.06;7394778;19;20011;-59
2024/03/26 05:35:16;;;;;;;5.50;1.75;;;;;;;33.62;22.84;97316.63;7395858;19;20017;-60
2024/03/26 05:37:47;;;;;;;2.03;1.85;;;;;;;33.43;22.95;97320.63;7393165;19;20007;-59
2024/03/26 05:40:14;;;;;;;6.00;2.78;;;;;;;33.44;22.55;97325.00;7394082;19;20019;-59
2024/03/26 05:42:40;;;;;;;3.47;1.92;;;;;;;33.80;22.71;97334.25;7393707;19;20018;-59
2024/03/26 05:45:06;;;;;;;2.35;1.73;;;;;;;33.48;22.83;97328.66;7397668;19;20359;-59
2024/03/26 05:47:33;;;;;;;4.63;1.42;;;;;;;33.42;22.58;97322.03;7395464;19;20046;-59
2024/03/26 05:49:59;;;;;;;4.05;1.42;;;;;;;33.24;23.08;97324.66;7393891;19;20376;-59
2024/03/26 05:52:25;;;;;;;27.05;3.75;;;;;;;33.00;23.33;97327.09;7394567;19;20033;-60
2024/03/26 05:54:51;;;;;;;3.30;2.13;;;;;;;32.95;22.71;97316.88;7394469;19;20361;-60
2024/03/26 05:57:17;;;;;;;14.65;2.25;;;;;;;32.80;23.28;97319.50;7398426;19;20015;-59
2024/03/26 05:59:43;;;;;;;2.53;1.08;;;;;;;32.85;23.18;97323.91;7394505;19;20007;-59
2024/03/26 06:02:09;;;;;;;1.25;1.05;;;;;;;33.22;22.72;97310.94;7393320;19;20007;-60
2024/03/26 06:04:36;;;;;;;6.15;1.75;;;;;;;33.29;22.96;97311.72;7393669;19;20746;-60
2024/03/26 06:07:02;;;;;;;1.75;1.13;;;;;;;33.42;22.73;97313.38;7396122;19;20007;-60
2024/03/26 06:09:28;;;;;;;5.85;2.92;;;;;;;33.40;22.73;97314.09;7393826;19;20018;-60
2024/03/26 06:11:54;;;;;;;5.05;2.28;;;;;;;33.41;22.56;97309.06;7393242;19;20025;-60
2024/03/26 06:14:20;;;;;;;5.25;1.80;;;;;;;33.39;22.73;97306.16;7392837;19;20010;-60
2024/03/26 06:16:46;;;;;;;9.80;1.92;;;;;;;33.43;22.65;97300.44;7395381;19;20063;-60
2024/03/26 06:19:12;;;;;;;5.10;1.88;;;;;;;33.47;22.55;97294.72;7398303;19;20014;-60
2024/03/26 06:21:38;;;;;;;29.70;3.65;;;;;;;33.44;22.53;97291.06;7393969;19;20028;-60
2024/03/26 06:24:04;;;;;;;5.53;2.53;;;;;;;33.29;22.76;97280.00;7391096;19;20043;-60
2024/03/26 06:26:31;;;;;;;4.05;1.95;;;;;;;33.47;22.80;97280.28;7393900;19;20018;-60
2024/03/26 06:28:57;;;;;;;6.55;1.83;;;;;;;33.50;22.36;97276.03;7390973;19;20070;-60
2024/03/26 06:31:23;;;;;;;1.00;0.85;;;;;;;33.57;22.61;97280.47;7392410;19;20022;-60
2024/03/26 06:33:49;;;;;;;4.13;1.40;;;;;;;33.40;22.60;97272.97;7392007;19;20340;-60
2024/03/26 06:36:15;;;;;;;15.40;2.33;;;;;;;33.25;22.94;97279.94;7388533;19;20092;-60
2024/03/26 06:38:41;;;;;;;6.97;1.83;;;;;;;33.19;23.02;97276.94;7392375;19;20010;-60
2024/03/26 06:41:07;;;;;;;4.10;1.80;;;;;;;33.37;22.88;97280.13;7392794;19;20557;-59
2024/03/26 06:43:33;;;;;;;8.70;2.83;;;;;;;33.42;23.00;97287.41;7392968;19;20520;-60
2024/03/26 06:46:00;;;;;;;8.98;2.78;;;;;;;33.34;22.95;97287.28;7390809;19;20030;-60
2024/03/26 06:48:26;;;;;;;8.13;2.08;;;;;;;33.38;23.03;97281.59;7395121;19;20010;-60
2024/03/26 06:50:52;;;;;;;1.05;1.05;;;;;;;33.40;23.22;97285.22;7390360;19;20010;-60
2024/03/26 06:53:18;;;;;;;6.80;2.42;;;;;;;33.54;23.20;97281.88;7392597;19;20017;-60
2024/03/26 06:55:44;;;;;;;10.80;2.50;;;;;;;33.93;22.83;97295.44;7393725;19;20021;-60
2024/03/26 06:58:10;;;;;;;10.77;2.80;;;;;;;33.90;22.84;97290.31;7392369;19;20018;-60
2024/03/26 07:00:37;;;;;;;3.97;1.75;;;;;;;33.96;22.99;97291.13;7392296;19;20011;-59
2024/03/26 07:03:03;;;;;;;5.43;2.25;;;;;;;34.01;23.12;97292.69;7391575;19;20089;-60
2024/03/26 07:05:29;;;;;;;3.67;1.02;;;;;;;34.28;22.59;97285.81;7392552;19;20034;-60
2024/03/26 07:07:55;;;;;;;8.15;3.08;;;;;;;34.32;22.46;97283.00;7392174;19;20070;-59
2024/03/26 07:10:21;;;;;;;3.00;2.60;;;;;;;34.32;22.67;97283.00;7392707;19;20014;-60
2024/03/26 07:12:47;;;;;;;3.13;2.35;;;;;;;34.40;22.88;97287.41;7392631;19;20022;-60
2024/03/26 07:15:14;;;;;;;7.35;1.77;;;;;;;34.45;22.48;97280.97;7390692;19;20022;-60
2024/03/26 07:17:40;;;;;;;3.75;1.33;;;;;;;34.45;22.77;97286.75;7392888;19;20007;-59
2024/03/26 07:20:09;;;;;;;6.60;2.53;;;;;;;34.20;22.91;97285.72;7392209;19;20447;-60
2024/03/26 07:22:37;;;;;;;9.40;2.75;;;;;;;34.42;23.01;97275.84;7388670;19;20410;-60
2024/03/26 07:25:04;;;;;;;8.52;1.77;;;;;;;34.65;22.97;97272.56;7393403;19;20011;-60
2024/03/26 07:27:30;;;;;;;4.15;1.60;;;;;;;34.65;23.09;97268.94;7390040;19;20007;-60
2024/03/26 07:29:57;;;;;;;9.00;2.58;;;;;;;34.72;23.13;97261.75;7389729;19;20406;-60
2024/03/26 07:32:23;;;;;;;13.82;3.03;;;;;;;34.79;22.88;97249.56;7389847;19;20070;-60
2024/03/26 07:34:49;;;;;;;2.33;1.52;;;;;;;34.73;23.06;97243.72;7393708;19;20015;-60
2024/03/26 07:37:15;;;;;;;10.25;3.85;;;;;;;34.67;23.14;97242.94;7388472;19;20470;-60
2024/03/26 07:39:41;;;;;;;5.60;1.95;;;;;;;34.79;22.97;97249.56;7388839;19;20337;-60
2024/03/26 07:42:08;;;;;;;5.20;2.20;;;;;;;35.06;22.98;97247.66;7389453;19;20007;-60
2024/03/26 07:44:34;;;;;;;6.13;2.65;;;;;;;34.93;22.94;97240.28;7391039;19;20026;-61
2024/03/26 07:47:00;;;;;;;3.80;2.88;;;;;;;34.89;22.73;97234.47;7393679;19;20010;-60
2024/03/26 07:49:26;;;;;;;6.20;2.95;;;;;;;34.88;23.07;97250.34;7392865;19;20027;-60
2024/03/26 07:51:52;;;;;;;7.70;2.47;;;;;;;34.95;22.70;97243.94;7395174;19;20010;-60
2024/03/26 07:54:22;;;;;;;4.65;2.75;;;;;;;35.25;22.67;97237.69;7396125;19;20014;-60
2024/03/26 07:56:48;;;;;;;4.35;3.20;;;;;;;35.34;22.91;97235.59;7397763;19;20486;-60
2024/03/26 07:59:14;;;;;;;8.60;2.03;;;;;;;35.26;22.80;97242.03;7395192;19;20336;-60
2024/03/26 08:01:40;;;;;;;10.82;2.65;;;;;;;35.22;22.68;97236.22;7395021;19;20086;-60
2024/03/26 08:04:06;;;;;;;6.60;2.08;;;;;;;34.83;22.97;97238.03;7392566;19;20015;-60
2024/03/26 08:06:33;;;;;;;5.93;2.10;;;;;;;32.98;24.20;97237.63;7396153;19;20011;-60
2024/03/26 08:08:59;;;;;;;4.95;2.42;;;;;;;33.29;24.07;97239.59;7395178;19;20007;-61
2024/03/26 08:11:25;;;;;;;9.75;3.60;;;;;;;33.71;23.84;97236.63;7395534;19;20010;-61
2024/03/26 08:13:51;;;;;;;6.45;2.90;;;;;;;33.82;23.78;97224.53;7395079;19;20035;-61
2024/03/26 08:16:18;;;;;;;10.88;2.85;;;;;;;33.52;24.00;97232.78;7396536;19;20037;-60
2024/03/26 08:18:44;;;;;;;5.25;2.55;;;;;;;33.32;24.40;97220.91;7398928;19;20007;-60
2024/03/26 08:21:10;;;;;;;8.95;2.90;;;;;;;32.90;24.78;97221.66;7377767;19;322876;-61
2024/03/26 08:23:36;;;;;;;5.78;2.40;;;;;;;33.51;24.17;97211.84;7395573;19;20014;-60
2024/03/26 08:26:02;;;;;;;12.07;2.97;;;;;;;33.88;24.01;97215.22;7395531;19;20010;-60
2024/03/26 08:28:28;;;;;;;3.97;2.20;;;;;;;33.61;24.07;97205.50;7400549;19;20015;-60
2024/03/26 08:30:54;;;;;;;4.10;1.20;;;;;;;33.60;23.74;97204.03;7395744;19;20028;-61
2024/03/26 08:33:21;;;;;;;9.48;3.55;;;;;;;34.15;23.81;97197.53;7396059;19;20486;-60
2024/03/26 08:35:47;;;;;;;6.55;1.50;;;;;;;34.09;23.88;97200.34;7396771;19;20006;-60
2024/03/26 08:38:13;;;;;;;5.10;2.00;;;;;;;34.21;23.93;97200.50;7401312;19;20408;-60
2024/03/26 08:40:40;;;;;;;3.95;2.92;;;;;;;33.94;23.94;97192.91;7397243;19;20402;-60
2024/03/26 08:43:08;;;;;;;6.85;3.38;;;;;;;33.82;23.84;97192.78;7396144;19;20010;-60
2024/03/26 08:45:39;;;;;;;7.68;2.53;;;;;;;33.84;23.79;97194.94;7401023;19;20022;-60
2024/03/26 08:48:06;;;;;;;5.95;2.20;;;;;;;34.30;23.60;97187.59;7400097;19;20014;-60
2024/03/26 08:50:32;;;;;;;14.32;2.40;;;;;;;34.56;23.42;97195.09;7396846;19;20078;-60
2024/03/26 08:52:58;;;;;;;10.13;3.10;;;;;;;34.28;23.41;97193.34;7395353;19;20014;-60
2024/03/26 08:55:25;;;;;;;8.27;2.22;;;;;;;34.09;23.31;97197.44;7396616;19;20011;-60
2024/03/26 08:57:51;;;;;;;3.33;1.60;;;;;;;33.04;24.41;97191.59;7397728;19;20010;-60
2024/03/26 09:00:18;;;;;;;5.70;1.95;;;;;;;33.03;24.97;97190.16;7392764;19;20011;-60
2024/03/26 09:02:44;;;;;;;6.32;1.67;;;;;;;33.41;24.62;97190.72;7395361;19;20022;-60
2024/03/26 09:05:10;;;;;;;7.65;2.30;;;;;;;33.03;24.79;97185.09;7395313;19;20018;-61
2024/03/26 09:07:36;;;;;;;4.20;2.20;;;;;;;32.92;24.79;97179.84;7399346;19;20018;-60
2024/03/26 09:10:06;;;;;;;6.93;2.03;;;;;;;33.35;24.75;97179.09;7395915;19;20006;-60
2024/03/26 09:12:35;;;;;;;8.73;2.28;;;;;;;33.84;24.07;97166.81;7396240;19;20070;-60
2024/03/26 09:15:02;;;;;;;16.30;2.90;;;;;;;33.63;24.53;97162.22;7395861;19;20020;-60
2024/03/26 09:17:28;;;;;;;3.33;2.53;;;;;;;33.44;24.65;97164.06;7397308;19;20011;-60
2024/03/26 09:19:55;;;;;;;6.65;2.85;;;;;;;33.33;25.13;97164.66;7394673;19;20033;-60
2024/03/26 09:22:21;;;;;;;8.30;2.10;;;;;;;33.07;24.94;97156.31;7394375;19;20017;-60
2024/03/26 09:24:47;;;;;;;9.90;2.78;;;;;;;32.44;25.29;97157.41;7395224;19;20014;-60
2024/03/26 09:27:13;;;;;;;2.38;2.03;;;;;;;32.95;24.78;97161.16;7396774;19;20010;-61
2024/03/26 09:29:40;;;;;;;7.25;2.92;;;;;;;32.39;24.92;97167.41;7393570;19;20010;-60
2024/03/26 09:32:08;;;;;;;4.03;2.85;;;;;;;32.80;25.02;97163.09;7393331;19;20107;-60
2024/03/26 09:34:37;;;;;;;7.85;3.67;;;;;;;34.01;24.36;97154.03;7395072;19;20486;-60
2024/03/26 09:37:03;;;;;;;11.82;2.67;;;;;;;32.99;24.53;97155.44;7395897;19;20058;-60
2024/03/26 09:39:29;;;;;;;5.70;2.58;;;;;;;33.10;24.83;97159.97;7395284;19;20006;-60
2024/03/26 09:41:58;;;;;;;7.35;2.13;;;;;;;33.37;24.61;97156.06;7393732;19;20554;-60
2024/03/26 09:44:29;;;;;;;5.68;2.25;;;;;;;33.67;24.30;97142.03;7393724;19;20025;-60
2024/03/26 09:46:57;;;;;;;3.70;1.80;;;;;;;34.43;23.87;97139.31;7394833;19;20041;-60
2024/03/26 09:49:26;;;;;;;7.22;1.50;;;;;;;33.28;24.41;97134.28;7393547;19;20010;-61
2024/03/26 09:51:54;;;;;;;10.07;3.33;;;;;;;33.29;24.05;97138.59;7394362;19;20042;-61
2024/03/26 09:54:20;;;;;;;11.05;2.80;;;;;;;32.80;24.96;97140.00;7393600;19;20343;-60
2024/03/26 09:56:47;;;;;;;6.38;3.28;;;;;;;33.06;24.60;97136.84;7394573;19;20440;-60
2024/03/26 09:59:13;;;;;;;5.68;1.73;;;;;;;33.10;24.61;97136.88;7394114;19;20006;-60
2024/03/26 10:01:40;;;;;;;8.70;2.10;;;;;;;33.69;24.36;97138.44;7394004;19;20035;-61
2024/03/26 10:04:08;;;;;;;3.78;2.15;;;;;;;33.71;24.20;97126.94;7392560;19;20458;-61
2024/03/26 10:06:36;;;;;;;5.63;2.22;;;;;;;33.91;24.37;97127.91;7393433;19;20098;-61
2024/03/26 10:09:03;;;;;;;15.02;3.30;;;;;;;34.26;24.15;97121.06;7393716;19;20032;-61
2024/03/26 10:11:29;;;;;;;9.65;2.58;;;;;;;33.93;24.39;97125.03;7391871;19;20403;-61
2024/03/26 10:13:55;;;;;;;5.57;3.17;;;;;;;33.55;24.37;97124.56;7390786;19;20024;-61
2024/03/26 10:16:22;;;;;;;5.13;1.83;;;;;;;33.63;24.65;97122.50;7389990;19;20006;-61
2024/03/26 10:18:48;;;;;;;8.18;2.00;;;;;;;33.58;24.52;97114.50;7395457;19;20014;-61
2024/03/26 10:21:14;;;;;;;5.68;3.90;;;;;;;33.71;24.58;97109.59;7392365;19;20083;-61
2024/03/26 10:23:42;;;;;;;14.25;2.72;;;;;;;34.39;24.08;97109.63;7390200;19;20018;-61
2024/03/26 10:26:09;;;;;;;8.85;4.43;;;;;;;35.07;23.59;97116.00;7393494;19;20017;-61
2024/03/26 10:28:35;;;;;;;3.08;1.70;;;;;;;34.09;23.96;97113.66;7397721;19;20033;-61
2024/03/26 10:31:03;;;;;;;4.50;2.75;;;;;;;33.68;24.58;97117.50;7393987;19;20014;-61
2024/03/26 10:33:29;;;;;;;4.18;1.85;;;;;;;33.76;24.84;97117.63;7391966;19;20014;-61
2024/03/26 10:35:56;;;;;;;5.15;1.90;;;;;;;34.24;24.30;97100.81;7391958;19;20014;-61
2024/03/26 10:38:24;;;;;;;12.45;2.33;;;;;;;34.54;24.35;97100.41;7392018;19;20019;-61
2024/03/26 10:41:22;;;;;;;13.18;2.45;;;;;;;34.37;24.72;97089.38;7393118;19;20014;-61
2024/03/26 10:43:50;;;;;;;17.20;3.00;;;;;;;34.28;24.83;97092.19;7392057;19;20010;-61
2024/03/26 10:46:18;;;;;;;13.60;3.72;;;;;;;34.50;24.79;97080.13;7392964;19;20014;-61
2024/03/26 10:48:45;;;;;;;9.20;3.65;;;;;;;34.76;24.39;97088.28;7395686;19;20017;-61
2024/03/26 10:51:13;;;;;;;8.63;3.25;;;;;;;34.49;24.73;97090.22;7393032;19;20015;-61
2024/03/26 10:53:39;;;;;;;14.65;3.15;;;;;;;34.53;24.62;97080.88;7391147;19;20011;-61
2024/03/26 10:56:10;;;;;;;5.13;2.20;;;;;;;35.82;23.91;97096.16;7392675;19;20018;-61
2024/03/26 10:58:37;;;;;;;10.13;3.78;;;;;;;36.36;22.95;97078.91;7391635;19;20022;-61
2024/03/26 11:01:04;;;;;;;6.15;2.88;;;;;;;36.35;22.89;97089.03;7392452;19;20074;-61
2024/03/26 11:03:32;;;;;;;8.27;2.75;;;;;;;36.01;22.85;97088.97;7391301;19;20006;-61
2024/03/26 11:05:59;;;;;;;8.95;2.67;;;;;;;35.92;22.87;97087.47;7392827;19;20026;-61
2024/03/26 11:08:27;;;;;;;7.47;2.35;;;;;;;35.50;23.23;97085.88;7392115;19;20467;-61
2024/03/26 11:11:00;;;;;;;11.93;3.13;;;;;;;35.29;23.35;97084.31;7392365;19;20014;-61
2024/03/26 11:13:44;;;;;;;12.07;3.08;;;;;;;35.86;23.38;97091.09;7393069;19;20496;-61
2024/03/26 11:16:41;;;;;;;11.07;2.65;;;;;;;36.28;22.78;97087.56;7395047;19;20011;-60
2024/03/26 11:19:21;;;;;;;15.52;4.22;;;;;;;36.91;22.11;97089.06;7394384;19;20043;-60
2024/03/26 11:21:49;;;;;;;4.55;1.08;;;;;;;37.27;22.13;97084.66;7392669;19;20015;-61
2024/03/26 11:24:32;;;;;;;4.93;1.88;;;;;;;36.89;21.93;97089.06;7395687;19;20010;-61
2024/03/26 11:27:01;;;;;;;4.53;1.52;;;;;;;37.37;21.87;97076.66;7401486;19;20457;-60
2024/03/26 11:29:29;;;;;;;9.43;2.35;;;;;;;36.61;22.14;97065.13;7397936;19;20359;-61